Rotterdam Express — DMRX — position and weather

sailwx.info

Track history (hours):
 
Tides and Currents Weather Stations Pressure Air Temp Water Temp Dewpoint Dewpoint Depression Visibility Wind Speed Wind Dir Waves Ship Positions

Rotterdam Express

Last reported at 2016-May-04 20:29 UTC. Time now 2016-May-05 10:31 UTC.
Position N 45°10' W 125°05'.

Length 294 m; beam 32.2 m; draft 13.6 m.

Type: Ship. MMSI: 211335760.

Date/timePositionNaut miles runAvg speedWind from/ knotsBaromVisibWave heightAir tempDewpointWater temp
2016-May-04 20:29N 45°10' W 125°05'2120.6
2016-May-04 19:29N 45°31' W 125°06'1920.8
2016-May-04 18:33N 45°50' W 125°08'1017.9
2016-May-04 18:00N 46°00' W 125°06'1125.1 350 / 191020.410.8 2.016.5 5.714.0
2016-May-04 17:33N 46°11' W 125°10'2120.9
2016-May-04 16:33N 46°32' W 125°11'2221.7
2016-May-04 15:32N 46°54' W 125°13'9715.4
2016-May-04 09:14N 48°22' W 124°12'1319.0
2016-May-04 08:32N 48°17' W 123°54'1818.0
2016-May-04 07:33N 48°14' W 123°28'8 7.6
2016-May-04 06:32N 48°09' W 123°18'1615.8
2016-May-04 05:32N 48°12' W 122°55'1515.1
2016-May-04 04:33N 48°03' W 122°38'1717.3
2016-May-04 03:33N 47°48' W 122°26'1817.5
2016-May-04 02:33N 47°30' W 122°26'1313.2
2016-May-04 01:33N 47°17' W 122°25'3 0.2
2016-May-03 15:09N 47°15' W 122°23'0 0.0
2016-May-03 13:26N 47°15' W 122°23'0 0.0
2016-May-03 11:28N 47°15' W 122°23'1 0.3
2016-May-03 08:33N 47°16' W 122°24'5 4.8
2016-May-03 07:34N 47°20' W 122°26'1211.6
2016-May-03 06:34N 47°32' W 122°26'1616.1
2016-May-03 05:33N 47°48' W 122°27'1817.4
2016-May-03 04:33N 48°04' W 122°39'1817.5
2016-May-03 03:32N 48°12' W 123°03'1515.3
2016-May-03 02:33N 48°10' W 123°25'1312.8
2016-May-03 01:34N 48°23' W 123°24'1313.3
2016-May-03 00:33N 48°34' W 123°14'1716.6
2016-May-02 23:33N 48°49' W 123°01'1918.8
2016-May-02 22:33N 49°03' W 123°20'9 9.0
2016-May-02 21:33N 49°07' W 123°07'9 8.9
2016-May-02 20:33N 49°11' W 122°55'0 0.1
2016-May-02 19:33N 49°11' W 122°55'0 0.0
2016-May-02 18:33N 49°11' W 122°55'0 0.0
2016-May-02 17:33N 49°11' W 122°55'0 0.0
2016-May-02 16:32N 49°11' W 122°55'0 0.0
2016-May-02 15:31N 49°11' W 122°55'0 0.0
2016-May-02 14:31N 49°11' W 122°55'0 0.0
2016-May-02 13:33N 49°11' W 122°55'0 0.0
2016-May-02 12:31N 49°11' W 122°55'0 0.0
2016-May-02 11:33N 49°11' W 122°55'0 0.0
2016-May-02 10:31N 49°11' W 122°55'0 0.0
2016-May-02 09:33N 49°11' W 122°55'0 0.0
2016-May-02 08:31N 49°11' W 122°55'0 0.0
2016-May-02 07:31N 49°11' W 122°55'0 0.0
2016-May-02 06:31N 49°11' W 122°55'0 0.0
2016-May-02 05:31N 49°11' W 122°55'0 0.0
2016-May-02 04:31N 49°11' W 122°55'0 0.0
2016-May-02 03:31N 49°11' W 122°55'0 0.0
2016-May-02 02:33N 49°11' W 122°55'0 0.0
2016-May-02 01:29N 49°11' W 122°55'0 0.0
2016-May-02 00:32N 49°11' W 122°55'0 0.0
2016-May-01 23:33N 49°11' W 122°55'0 0.0
2016-May-01 22:33N 49°11' W 122°55'0 0.0
2016-May-01 21:33N 49°11' W 122°55'0 0.0
2016-May-01 20:33N 49°11' W 122°55'0 0.0
2016-May-01 19:31N 49°11' W 122°55'0 0.0
2016-May-01 18:31N 49°11' W 122°55'0 0.0
2016-May-01 17:33N 49°11' W 122°55'0 0.0
2016-May-01 16:32N 49°11' W 122°55'0 0.0
2016-May-01 15:32N 49°11' W 122°55'0 0.0
2016-May-01 14:32N 49°11' W 122°55'0 0.0
2016-May-01 13:32N 49°11' W 122°55'0 0.0
2016-May-01 12:32N 49°11' W 122°55'0 0.0
2016-May-01 11:32N 49°11' W 122°55'0 0.0
2016-May-01 10:31N 49°11' W 122°55'0 0.0
2016-May-01 09:31N 49°11' W 122°55'0 0.0
2016-May-01 08:31N 49°11' W 122°55'0 0.0
2016-May-01 07:31N 49°11' W 122°55'0 0.0
2016-May-01 06:30N 49°11' W 122°55'0 0.0
2016-May-01 05:33N 49°11' W 122°55'0 0.0
2016-May-01 04:32N 49°11' W 122°55'0 0.0
2016-May-01 03:31N 49°11' W 122°55'0 0.0
2016-May-01 02:34N 49°11' W 122°55'0 0.0
2016-May-01 01:32N 49°11' W 122°55'0 0.0
2016-May-01 00:31N 49°11' W 122°55'0 0.0
2016-Apr-30 23:33N 49°11' W 122°55'0 0.0
2016-Apr-30 22:33N 49°11' W 122°55'0 0.0
2016-Apr-30 21:33N 49°11' W 122°55'0 0.0
2016-Apr-30 20:33N 49°11' W 122°55'0 0.0
2016-Apr-30 19:31N 49°11' W 122°55'0 0.0
2016-Apr-30 18:31N 49°11' W 122°55'0 0.0
2016-Apr-30 17:32N 49°11' W 122°55'0 0.0
2016-Apr-30 16:32N 49°11' W 122°55'0 0.0
2016-Apr-30 15:32N 49°11' W 122°55'0 0.0
2016-Apr-30 14:31N 49°11' W 122°55'0 0.0
2016-Apr-30 13:32N 49°11' W 122°55'0 0.0
2016-Apr-30 12:33N 49°11' W 122°55'0 0.0
2016-Apr-30 11:33N 49°11' W 122°55'0 0.0
2016-Apr-30 10:33N 49°11' W 122°55'0 0.0
2016-Apr-30 09:29N 49°11' W 122°55'0 0.0
2016-Apr-30 08:33N 49°11' W 122°55'0 0.0
2016-Apr-30 07:33N 49°11' W 122°55'0 0.0
2016-Apr-30 06:32N 49°11' W 122°55'0 0.0
2016-Apr-30 05:32N 49°11' W 122°55'0 0.0
2016-Apr-30 04:31N 49°11' W 122°55'0 0.0
2016-Apr-30 03:33N 49°11' W 122°55'0 0.0
2016-Apr-30 02:32N 49°11' W 122°55'0 0.0
2016-Apr-30 01:32N 49°11' W 122°55'0 0.0
2016-Apr-30 00:32N 49°11' W 122°55'0 0.0
2016-Apr-29 23:33N 49°11' W 122°55'0 0.0
2016-Apr-29 22:32N 49°11' W 122°55'0 0.0
2016-Apr-29 21:32N 49°11' W 122°55'0 0.0
2016-Apr-29 20:32N 49°11' W 122°55'0 0.0
2016-Apr-29 19:32N 49°11' W 122°55'0 0.0
2016-Apr-29 18:32N 49°11' W 122°55'0 0.0
2016-Apr-29 17:32N 49°11' W 122°55'0 0.0
2016-Apr-29 16:32N 49°11' W 122°55'0 0.0
2016-Apr-29 15:32N 49°11' W 122°55'0 0.0
2016-Apr-29 14:31N 49°11' W 122°55'1 1.4
2016-Apr-29 13:33N 49°10' W 122°56'9 9.2
2016-Apr-29 12:33N 49°06' W 123°09'7 6.9
2016-Apr-29 11:34N 49°02' W 123°17'1616.5
2016-Apr-29 10:33N 48°49' W 123°00'1514.6
2016-Apr-29 09:33N 48°38' W 123°14'1515.4
2016-Apr-29 08:33N 48°23' W 123°15'1212.3
2016-Apr-29 07:34N 48°13' W 123°25'1110.6
2016-Apr-29 06:33N 48°12' W 123°10'1616.2
2016-Apr-29 05:33N 48°10' W 122°45'1615.7
2016-Apr-29 04:33N 47°57' W 122°33'1616.1
2016-Apr-29 03:33N 47°41' W 122°27'1616.3
2016-Apr-29 02:34N 47°25' W 122°23'9 9.1
2016-Apr-29 01:33N 47°16' W 122°24'1 0.2
2016-Apr-28 17:22N 47°15' W 122°23'0 0.0
2016-Apr-28 16:28N 47°15' W 122°23'0 0.0
2016-Apr-28 13:27N 47°15' W 122°23'0 0.0
2016-Apr-28 12:32N 47°15' W 122°23'0 0.0
2016-Apr-28 11:33N 47°15' W 122°23'0 0.0
2016-Apr-28 10:21N 47°15' W 122°23'0 0.0
2016-Apr-28 09:21N 47°15' W 122°23'0 0.0
2016-Apr-28 07:17N 47°15' W 122°23'0 0.0
2016-Apr-28 01:13N 47°15' W 122°23'0 0.0
2016-Apr-27 23:32N 47°15' W 122°23'0 0.0
2016-Apr-27 22:33N 47°15' W 122°23'1 1.1
2016-Apr-27 21:32N 47°16' W 122°24'6 6.6
2016-Apr-27 20:33N 47°22' W 122°23'1717.3
2016-Apr-27 19:33N 47°39' W 122°28'1716.8
2016-Apr-27 18:33N 47°56' W 122°32'1514.9
2016-Apr-27 17:32N 48°09' W 122°44'1616.6
2016-Apr-27 16:32N 48°12' W 123°08'1414.0
2016-Apr-27 15:33N 48°12' W 123°29'1211.9
2016-Apr-27 14:32N 48°13' W 123°47'4414.0
2016-Apr-27 11:23N 48°29' W 124°49'14314.1
2016-Apr-27 01:16N 46°07' W 125°09'1114.4
2016-Apr-27 00:32N 45°56' W 125°08'1514.7
2016-Apr-26 23:32N 45°42' W 125°07'9617.3
2016-Apr-26 18:00N 44°06' W 125°00'9015.1 230 / 31021.110.8 14.4 4.414.0
2016-Apr-26 12:00N 42°36' W 124°48'26214.0 020 / 121021.610.8 1.510.0 3.715.0
2016-Apr-25 17:14N 38°21' W 123°28'1012.9
2016-Apr-25 16:27N 38°12' W 123°22'1112.6
2016-Apr-25 15:33N 38°03' W 123°13'1212.4
2016-Apr-25 14:33N 37°55' W 123°01'1413.4
2016-Apr-25 13:32N 37°48' W 122°47'1010.1
2016-Apr-25 12:33N 37°47' W 122°34'1212.0
2016-Apr-25 11:33N 37°48' W 122°19'0 0.0
2016-Apr-25 10:33N 37°48' W 122°19'0 0.0
2016-Apr-25 09:32N 37°48' W 122°19'0 0.0
2016-Apr-25 08:32N 37°48' W 122°19'0 0.0
2016-Apr-25 07:32N 37°48' W 122°19'0 0.0
2016-Apr-25 06:31N 37°48' W 122°19'0 0.0
2016-Apr-25 05:30N 37°48' W 122°19'0 0.0
2016-Apr-25 04:32N 37°48' W 122°19'0 0.0
2016-Apr-25 03:32N 37°48' W 122°19'0 0.0
2016-Apr-25 02:32N 37°48' W 122°19'0 0.0
2016-Apr-25 01:30N 37°48' W 122°19'0 0.0
2016-Apr-25 00:33N 37°48' W 122°19'0 0.0
2016-Apr-24 23:31N 37°48' W 122°19'0 0.0
2016-Apr-24 22:31N 37°48' W 122°19'1 1.0
2016-Apr-24 21:33N 37°48' W 122°18'1110.7
2016-Apr-24 20:33N 37°48' W 122°31'  
Track history (hours):
 
Tides and Currents Weather Stations Pressure Air Temp Water Temp Dewpoint Dewpoint Depression Visibility Wind Speed Wind Dir Waves Ship Positions

Rotterdam Express

Last reported at 2016-May-04 20:29 UTC. Time now 2016-May-05 10:31 UTC.
Position N 45°10' W 125°05'.

Length 294 m; beam 32.2 m; draft 13.6 m.

Type: Ship. MMSI: 211335760.

Date/timePositionNaut miles runAvg speedWind from/ knotsBaromVisibWave heightAir tempDewpointWater temp
2016-May-04 20:29N 45°10' W 125°05'2120.6
2016-May-04 19:29N 45°31' W 125°06'1920.8
2016-May-04 18:33N 45°50' W 125°08'1017.9
2016-May-04 18:00N 46°00' W 125°06'1125.1 350 / 191020.410.8 2.016.5 5.714.0
2016-May-04 17:33N 46°11' W 125°10'2120.9
2016-May-04 16:33N 46°32' W 125°11'2221.7
2016-May-04 15:32N 46°54' W 125°13'9715.4
2016-May-04 09:14N 48°22' W 124°12'1319.0
2016-May-04 08:32N 48°17' W 123°54'1818.0
2016-May-04 07:33N 48°14' W 123°28'8 7.6
2016-May-04 06:32N 48°09' W 123°18'1615.8
2016-May-04 05:32N 48°12' W 122°55'1515.1
2016-May-04 04:33N 48°03' W 122°38'1717.3
2016-May-04 03:33N 47°48' W 122°26'1817.5
2016-May-04 02:33N 47°30' W 122°26'1313.2
2016-May-04 01:33N 47°17' W 122°25'3 0.2
2016-May-03 15:09N 47°15' W 122°23'0 0.0
2016-May-03 13:26N 47°15' W 122°23'0 0.0
2016-May-03 11:28N 47°15' W 122°23'1 0.3
2016-May-03 08:33N 47°16' W 122°24'5 4.8
2016-May-03 07:34N 47°20' W 122°26'1211.6
2016-May-03 06:34N 47°32' W 122°26'1616.1
2016-May-03 05:33N 47°48' W 122°27'1817.4
2016-May-03 04:33N 48°04' W 122°39'1817.5
2016-May-03 03:32N 48°12' W 123°03'1515.3
2016-May-03 02:33N 48°10' W 123°25'1312.8
2016-May-03 01:34N 48°23' W 123°24'1313.3
2016-May-03 00:33N 48°34' W 123°14'1716.6
2016-May-02 23:33N 48°49' W 123°01'1918.8
2016-May-02 22:33N 49°03' W 123°20'9 9.0
2016-May-02 21:33N 49°07' W 123°07'9 8.9
2016-May-02 20:33N 49°11' W 122°55'0 0.1
2016-May-02 19:33N 49°11' W 122°55'0 0.0
2016-May-02 18:33N 49°11' W 122°55'0 0.0
2016-May-02 17:33N 49°11' W 122°55'0 0.0
2016-May-02 16:32N 49°11' W 122°55'0 0.0
2016-May-02 15:31N 49°11' W 122°55'0 0.0
2016-May-02 14:31N 49°11' W 122°55'0 0.0
2016-May-02 13:33N 49°11' W 122°55'0 0.0
2016-May-02 12:31N 49°11' W 122°55'0 0.0
2016-May-02 11:33N 49°11' W 122°55'0 0.0
2016-May-02 10:31N 49°11' W 122°55'0 0.0
2016-May-02 09:33N 49°11' W 122°55'0 0.0
2016-May-02 08:31N 49°11' W 122°55'0 0.0
2016-May-02 07:31N 49°11' W 122°55'0 0.0
2016-May-02 06:31N 49°11' W 122°55'0 0.0
2016-May-02 05:31N 49°11' W 122°55'0 0.0
2016-May-02 04:31N 49°11' W 122°55'0 0.0
2016-May-02 03:31N 49°11' W 122°55'0 0.0
2016-May-02 02:33N 49°11' W 122°55'0 0.0
2016-May-02 01:29N 49°11' W 122°55'0 0.0
2016-May-02 00:32N 49°11' W 122°55'0 0.0
2016-May-01 23:33N 49°11' W 122°55'0 0.0
2016-May-01 22:33N 49°11' W 122°55'0 0.0
2016-May-01 21:33N 49°11' W 122°55'0 0.0
2016-May-01 20:33N 49°11' W 122°55'0 0.0
2016-May-01 19:31N 49°11' W 122°55'0 0.0
2016-May-01 18:31N 49°11' W 122°55'0 0.0
2016-May-01 17:33N 49°11' W 122°55'0 0.0
2016-May-01 16:32N 49°11' W 122°55'0 0.0
2016-May-01 15:32N 49°11' W 122°55'0 0.0
2016-May-01 14:32N 49°11' W 122°55'0 0.0
2016-May-01 13:32N 49°11' W 122°55'0 0.0
2016-May-01 12:32N 49°11' W 122°55'0 0.0
2016-May-01 11:32N 49°11' W 122°55'0 0.0
2016-May-01 10:31N 49°11' W 122°55'0 0.0
2016-May-01 09:31N 49°11' W 122°55'0 0.0
2016-May-01 08:31N 49°11' W 122°55'0 0.0
2016-May-01 07:31N 49°11' W 122°55'0 0.0
2016-May-01 06:30N 49°11' W 122°55'0 0.0
2016-May-01 05:33N 49°11' W 122°55'0 0.0
2016-May-01 04:32N 49°11' W 122°55'0 0.0
2016-May-01 03:31N 49°11' W 122°55'0 0.0
2016-May-01 02:34N 49°11' W 122°55'0 0.0
2016-May-01 01:32N 49°11' W 122°55'0 0.0
2016-May-01 00:31N 49°11' W 122°55'0 0.0
2016-Apr-30 23:33N 49°11' W 122°55'0 0.0
2016-Apr-30 22:33N 49°11' W 122°55'0 0.0
2016-Apr-30 21:33N 49°11' W 122°55'0 0.0
2016-Apr-30 20:33N 49°11' W 122°55'0 0.0
2016-Apr-30 19:31N 49°11' W 122°55'0 0.0
2016-Apr-30 18:31N 49°11' W 122°55'0 0.0
2016-Apr-30 17:32N 49°11' W 122°55'0 0.0
2016-Apr-30 16:32N 49°11' W 122°55'0 0.0
2016-Apr-30 15:32N 49°11' W 122°55'0 0.0
2016-Apr-30 14:31N 49°11' W 122°55'0 0.0
2016-Apr-30 13:32N 49°11' W 122°55'0 0.0
2016-Apr-30 12:33N 49°11' W 122°55'0 0.0
2016-Apr-30 11:33N 49°11' W 122°55'0 0.0
2016-Apr-30 10:33N 49°11' W 122°55'0 0.0
2016-Apr-30 09:29N 49°11' W 122°55'0 0.0
2016-Apr-30 08:33N 49°11' W 122°55'0 0.0
2016-Apr-30 07:33N 49°11' W 122°55'0 0.0
2016-Apr-30 06:32N 49°11' W 122°55'0 0.0
2016-Apr-30 05:32N 49°11' W 122°55'0 0.0
2016-Apr-30 04:31N 49°11' W 122°55'0 0.0
2016-Apr-30 03:33N 49°11' W 122°55'0 0.0
2016-Apr-30 02:32N 49°11' W 122°55'0 0.0
2016-Apr-30 01:32N 49°11' W 122°55'0 0.0
2016-Apr-30 00:32N 49°11' W 122°55'0 0.0
2016-Apr-29 23:33N 49°11' W 122°55'0 0.0
2016-Apr-29 22:32N 49°11' W 122°55'0 0.0
2016-Apr-29 21:32N 49°11' W 122°55'0 0.0
2016-Apr-29 20:32N 49°11' W 122°55'0 0.0
2016-Apr-29 19:32N 49°11' W 122°55'0 0.0
2016-Apr-29 18:32N 49°11' W 122°55'0 0.0
2016-Apr-29 17:32N 49°11' W 122°55'0 0.0
2016-Apr-29 16:32N 49°11' W 122°55'0 0.0
2016-Apr-29 15:32N 49°11' W 122°55'0 0.0
2016-Apr-29 14:31N 49°11' W 122°55'1 1.4
2016-Apr-29 13:33N 49°10' W 122°56'9 9.2
2016-Apr-29 12:33N 49°06' W 123°09'7 6.9
2016-Apr-29 11:34N 49°02' W 123°17'1616.5
2016-Apr-29 10:33N 48°49' W 123°00'1514.6
2016-Apr-29 09:33N 48°38' W 123°14'1515.4
2016-Apr-29 08:33N 48°23' W 123°15'1212.3
2016-Apr-29 07:34N 48°13' W 123°25'1110.6
2016-Apr-29 06:33N 48°12' W 123°10'1616.2
2016-Apr-29 05:33N 48°10' W 122°45'1615.7
2016-Apr-29 04:33N 47°57' W 122°33'1616.1
2016-Apr-29 03:33N 47°41' W 122°27'1616.3
2016-Apr-29 02:34N 47°25' W 122°23'9 9.1
2016-Apr-29 01:33N 47°16' W 122°24'1 0.2
2016-Apr-28 17:22N 47°15' W 122°23'0 0.0
2016-Apr-28 16:28N 47°15' W 122°23'0 0.0
2016-Apr-28 13:27N 47°15' W 122°23'0 0.0
2016-Apr-28 12:32N 47°15' W 122°23'0 0.0
2016-Apr-28 11:33N 47°15' W 122°23'0 0.0
2016-Apr-28 10:21N 47°15' W 122°23'0 0.0
2016-Apr-28 09:21N 47°15' W 122°23'0 0.0
2016-Apr-28 07:17N 47°15' W 122°23'0 0.0
2016-Apr-28 01:13N 47°15' W 122°23'0 0.0
2016-Apr-27 23:32N 47°15' W 122°23'0 0.0
2016-Apr-27 22:33N 47°15' W 122°23'1 1.1
2016-Apr-27 21:32N 47°16' W 122°24'6 6.6
2016-Apr-27 20:33N 47°22' W 122°23'1717.3
2016-Apr-27 19:33N 47°39' W 122°28'1716.8
2016-Apr-27 18:33N 47°56' W 122°32'1514.9
2016-Apr-27 17:32N 48°09' W 122°44'1616.6
2016-Apr-27 16:32N 48°12' W 123°08'1414.0
2016-Apr-27 15:33N 48°12' W 123°29'1211.9
2016-Apr-27 14:32N 48°13' W 123°47'4414.0
2016-Apr-27 11:23N 48°29' W 124°49'14314.1
2016-Apr-27 01:16N 46°07' W 125°09'1114.4
2016-Apr-27 00:32N 45°56' W 125°08'1514.7
2016-Apr-26 23:32N 45°42' W 125°07'9617.3
2016-Apr-26 18:00N 44°06' W 125°00'9015.1 230 / 31021.110.8 14.4 4.414.0
2016-Apr-26 12:00N 42°36' W 124°48'26214.0 020 / 121021.610.8 1.510.0 3.715.0
2016-Apr-25 17:14N 38°21' W 123°28'1012.9
2016-Apr-25 16:27N 38°12' W 123°22'1112.6
2016-Apr-25 15:33N 38°03' W 123°13'1212.4
2016-Apr-25 14:33N 37°55' W 123°01'1413.4
2016-Apr-25 13:32N 37°48' W 122°47'1010.1
2016-Apr-25 12:33N 37°47' W 122°34'1212.0
2016-Apr-25 11:33N 37°48' W 122°19'0 0.0
2016-Apr-25 10:33N 37°48' W 122°19'0 0.0
2016-Apr-25 09:32N 37°48' W 122°19'0 0.0
2016-Apr-25 08:32N 37°48' W 122°19'0 0.0
2016-Apr-25 07:32N 37°48' W 122°19'0 0.0
2016-Apr-25 06:31N 37°48' W 122°19'0 0.0
2016-Apr-25 05:30N 37°48' W 122°19'0 0.0
2016-Apr-25 04:32N 37°48' W 122°19'0 0.0
2016-Apr-25 03:32N 37°48' W 122°19'0 0.0
2016-Apr-25 02:32N 37°48' W 122°19'0 0.0
2016-Apr-25 01:30N 37°48' W 122°19'0 0.0
2016-Apr-25 00:33N 37°48' W 122°19'0 0.0
2016-Apr-24 23:31N 37°48' W 122°19'0 0.0
2016-Apr-24 22:31N 37°48' W 122°19'1 1.0
2016-Apr-24 21:33N 37°48' W 122°18'1110.7
2016-Apr-24 20:33N 37°48' W 122°31'  

Dump ship's entire track history